KGEG

Spokane International Airport

Spokane, Washington, USA
METAR KGEG 171553Z 14008KT 6SM FU HZ BKN100 OVC150 21/11 A3011 RMK AO2 RAB39E50 SLP179 P0000 T02060111
Observed Flight Rules
Aug-17 @ 15:53 UTC (60 minutes ago) Visual Flight Rules
Wind Visibility Clouds Conditions
140° at 8 knots 6 miles
  • Broken at 10,000' AGL
  • Overcast at 15,000' AGL
  • Smoke
  • Haze
Temperatures Readings Precipitation
Current 21°C / 70°F
Dewpoint 11°C / 52°F
Humidity 53%
Altimeter 30.11" Hg
Pressure 1017.9 hPa
Elevation 735
Current Rain 0.005
METAR KGEG 171553Z 14008KT 6SM FU HZ BKN100 OVC150 21/11 A3011 RMK AO2 RAB39E50 SLP179 P0000 T02060111
Observed Flight Rules
Aug-17 @ 15:53 UTC
(60 minutes ago)
VFR
Wind Visibility
140° at 8 knots 6 miles
Clouds
  • Broken at 10,000' AGL
  • Overcast at 15,000' AGL
Conditions
  • Smoke
  • Haze
Temperature Dewpoint
21°C / 70°F 11°C / 52°F
Humidity Altimeter Pressure
53% 30.11" Hg 1017.9 hPa
Current Rain
0.005